Time;durP1;ratioP1;P1;durP2;ratioP2;P2;SDS_P1;SDS_P2;PMS_P1;PMS_P2;Temp;Humidity;BMP_temperature;BMP_pressure;BME280_temperature;BME280_humidity;BME280_pressure;Samples;Min_cycle;Max_cycle;Signal;HPM_P1;HPM_P2
2022/05/28 00:05:50;;;;;;;3.63;2.40;;;;;;;24.94;38.87;100156.53;20790263;27;97914;-78
2022/05/28 00:15:51;;;;;;;2.38;2.17;;;;;;;24.92;38.84;100155.84;20784235;27;97280;-77
2022/05/28 00:25:52;;;;;;;3.00;2.00;;;;;;;24.92;38.90;100142.59;20807162;27;98728;-77
2022/05/28 00:35:53;;;;;;;2.22;1.95;;;;;;;24.88;38.79;100136.78;20811417;27;97260;-77
2022/05/28 00:46:01;;;;;;;1.90;1.70;;;;;;;24.87;38.69;100158.13;20810745;27;98613;-76
2022/05/28 00:56:04;;;;;;;2.40;1.92;;;;;;;24.87;38.86;100163.41;20805884;27;97421;-77
2022/05/28 01:06:25;;;;;;;1.77;1.67;;;;;;;24.84;38.93;100150.47;20812153;27;97846;-77
2022/05/28 01:16:47;;;;;;;1.77;1.65;;;;;;;24.83;38.58;100119.66;20789046;27;97093;-77
2022/05/28 01:26:57;;;;;;;1.87;1.67;;;;;;;24.81;38.96;100106.56;20784603;27;97555;-78
2022/05/28 01:37:01;;;;;;;1.97;1.50;;;;;;;24.83;38.83;100090.53;20807578;27;96985;-77
2022/05/28 01:47:02;;;;;;;2.60;1.60;;;;;;;24.83;38.54;100101.13;20799482;27;97360;-78
2022/05/28 01:57:04;;;;;;;1.92;1.60;;;;;;;24.81;38.73;100106.56;20799697;27;99936;-77
2022/05/28 02:07:05;;;;;;;1.57;1.47;;;;;;;24.82;38.80;100144.50;20798359;27;98170;-77
2022/05/28 02:17:22;;;;;;;1.37;1.27;;;;;;;24.81;38.55;100143.66;20784887;27;97504;-78
2022/05/28 02:27:26;;;;;;;1.63;1.45;;;;;;;24.79;38.77;100137.66;20794550;27;98353;-78
2022/05/28 02:37:27;;;;;;;1.63;1.30;;;;;;;24.76;38.63;100141.44;20803546;27;97190;-77
2022/05/28 02:47:28;;;;;;;1.40;1.30;;;;;;;24.75;38.64;100160.94;20779996;27;97944;-77
2022/05/28 02:57:28;;;;;;;1.50;1.17;;;;;;;24.75;38.65;100168.91;20779090;27;97658;-79
2022/05/28 03:07:29;;;;;;;1.30;1.20;;;;;;;24.74;38.77;100161.94;20793323;27;97197;-78
2022/05/28 03:17:30;;;;;;;1.15;1.02;;;;;;;24.73;38.84;100138.25;20774907;27;99571;-77
2022/05/28 03:27:30;;;;;;;1.40;1.30;;;;;;;24.73;38.72;100146.19;20796151;27;98559;-79
2022/05/28 03:37:31;;;;;;;0.95;0.85;;;;;;;24.71;38.86;100151.66;20783952;27;99609;-79
2022/05/28 03:47:32;;;;;;;1.50;0.95;;;;;;;24.70;38.80;100139.38;20797998;27;99390;-78
2022/05/28 03:57:33;;;;;;;1.20;1.10;;;;;;;24.69;38.98;100150.94;20784120;27;97102;-77
2022/05/28 04:07:34;;;;;;;11.07;1.00;;;;;;;24.54;36.61;100157.72;20787918;27;98264;-78
2022/05/28 04:17:35;;;;;;;3.58;0.98;;;;;;;24.51;36.22;100148.25;20806968;27;100668;-78
2022/05/28 04:27:40;;;;;;;7.03;0.88;;;;;;;24.46;35.91;100153.13;20815941;27;97513;-78
2022/05/28 04:37:40;;;;;;;5.43;0.80;;;;;;;24.44;36.11;100150.63;20794046;27;97154;-78
2022/05/28 04:47:41;;;;;;;8.60;1.20;;;;;;;24.33;36.14;100165.84;20802931;27;97401;-78
2022/05/28 04:57:42;;;;;;;3.25;0.88;;;;;;;24.12;34.51;100188.06;20815503;27;97397;-78
2022/05/28 05:07:42;;;;;;;2.70;1.05;;;;;;;23.81;35.19;100180.28;20797176;27;97622;-78
2022/05/28 05:17:43;;;;;;;1.23;0.80;;;;;;;24.00;35.55;100183.91;20804360;27;97340;-78
2022/05/28 05:27:43;;;;;;;5.32;1.02;;;;;;;24.03;35.31;100181.00;20810898;27;97131;-77
2022/05/28 05:37:44;;;;;;;1.45;0.80;;;;;;;24.03;35.37;100181.81;20814143;27;98306;-76
2022/05/28 05:47:44;;;;;;;2.10;0.90;;;;;;;24.01;35.50;100177.66;20815501;27;97763;-78
2022/05/28 05:57:45;;;;;;;3.40;1.30;;;;;;;23.97;35.64;100177.09;20810735;27;100083;-77
2022/05/28 06:07:46;;;;;;;3.30;1.03;;;;;;;23.96;35.77;100160.41;20801288;27;97115;-79
2022/05/28 06:17:48;;;;;;;3.33;0.90;;;;;;;23.96;35.65;100163.06;20799448;27;98978;-76
2022/05/28 06:27:48;;;;;;;3.13;1.10;;;;;;;23.99;35.41;100175.16;20806467;27;97378;-78
2022/05/28 06:37:50;;;;;;;2.03;1.20;;;;;;;24.00;35.57;100168.91;20786663;27;100916;-76
2022/05/28 06:47:51;;;;;;;2.25;1.10;;;;;;;24.02;35.33;100166.91;20793516;27;97651;-75
2022/05/28 06:57:52;;;;;;;1.80;1.00;;;;;;;24.03;35.00;100170.41;20794503;27;100007;-77
2022/05/28 07:07:54;;;;;;;13.07;1.42;;;;;;;24.07;35.26;100166.50;20790031;27;100879;-76
2022/05/28 07:17:54;;;;;;;6.20;1.48;;;;;;;24.11;34.02;100189.06;20780650;27;97142;-80
2022/05/28 07:27:55;;;;;;;5.88;1.40;;;;;;;23.97;31.48;100191.19;20789285;27;98603;-77
2022/05/28 07:37:55;;;;;;;2.35;1.25;;;;;;;23.81;29.27;100197.00;20818097;27;97319;-76
2022/05/28 07:47:56;;;;;;;6.43;1.10;;;;;;;23.60;29.41;100196.31;20815722;27;97100;-77
2022/05/28 07:57:57;;;;;;;2.45;1.30;;;;;;;23.54;30.06;100203.00;20818349;27;96962;-77
2022/05/28 08:07:57;;;;;;;3.50;1.13;;;;;;;23.44;31.00;100204.81;20821905;27;99295;-76
2022/05/28 08:17:59;;;;;;;4.22;1.25;;;;;;;23.27;30.24;100201.84;20781818;27;98391;-78
2022/05/28 08:27:59;;;;;;;3.63;1.30;;;;;;;22.69;30.49;100211.28;20811561;27;98348;-81
2022/05/28 08:38:11;;;;;;;2.67;1.15;;;;;;;22.44;30.98;100211.72;20800319;27;96853;-79
2022/05/28 08:48:17;;;;;;;4.15;1.30;;;;;;;22.74;30.68;100221.44;20811921;27;97819;-79
2022/05/28 08:58:26;;;;;;;3.65;1.00;;;;;;;22.76;29.76;100216.03;20814602;27;96967;-79
2022/05/28 09:08:41;;;;;;;2.60;1.15;;;;;;;22.94;30.32;100193.28;20819297;27;97288;-81
2022/05/28 09:18:43;;;;;;;3.63;1.50;;;;;;;22.90;30.71;100186.63;20808557;27;97443;-77
2022/05/28 09:29:03;;;;;;;2.78;1.50;;;;;;;22.97;31.16;100187.75;20806886;27;100665;-77
2022/05/28 09:39:21;;;;;;;4.88;1.30;;;;;;;22.92;30.67;100176.72;20802929;27;97479;-78
2022/05/28 09:49:24;;;;;;;3.40;1.65;;;;;;;23.05;30.85;100196.81;20782549;27;97892;-76
2022/05/28 09:59:35;;;;;;;1.52;1.10;;;;;;;23.06;31.12;100188.75;20808386;27;97123;-77
2022/05/28 10:09:48;;;;;;;2.90;1.30;;;;;;;23.04;29.59;100185.38;20808215;27;96926;-77
2022/05/28 10:19:52;;;;;;;3.25;1.10;;;;;;;22.97;29.12;100177.19;20811117;27;100153;-78
2022/05/28 10:29:56;;;;;;;1.88;1.20;;;;;;;22.84;29.28;100164.22;20807230;27;97553;-75
2022/05/28 10:40:11;;;;;;;5.78;1.17;;;;;;;23.08;29.22;100160.38;20810951;27;97799;-78
2022/05/28 10:50:16;;;;;;;6.60;1.50;;;;;;;23.14;28.90;100159.00;20803131;27;97753;-77
2022/05/28 11:00:23;;;;;;;4.53;1.23;;;;;;;22.98;29.55;100162.16;20789464;27;98173;-75
2022/05/28 11:10:37;;;;;;;3.90;1.35;;;;;;;23.13;29.47;100150.25;20801873;27;97215;-76
2022/05/28 11:20:53;;;;;;;7.05;1.35;;;;;;;22.96;29.92;100153.53;20792127;27;99829;-76
2022/05/28 11:30:59;;;;;;;3.47;1.48;;;;;;;23.02;30.70;100147.72;20769886;27;100756;-76
2022/05/28 11:41:11;;;;;;;4.93;1.40;;;;;;;23.24;29.51;100122.03;20792137;27;97474;-77
2022/05/28 11:51:29;;;;;;;3.97;1.20;;;;;;;23.21;28.10;100112.59;20811360;27;100321;-78
2022/05/28 12:01:43;;;;;;;2.15;1.17;;;;;;;23.18;27.12;100107.59;20774536;27;97563;-77
2022/05/28 12:12:13;;;;;;;4.35;1.50;;;;;;;23.30;27.41;100093.28;20808994;27;98746;-77
2022/05/28 12:22:49;;;;;;;6.00;1.13;;;;;;;23.10;26.71;100095.03;20770918;27;98847;-77
2022/05/28 12:32:52;;;;;;;6.13;1.58;;;;;;;23.48;28.47;100093.38;20774413;27;97732;-78
2022/05/28 12:42:59;;;;;;;4.47;1.20;;;;;;;23.75;29.05;100083.88;20786713;27;97337;-79
2022/05/28 12:53:20;;;;;;;3.03;1.40;;;;;;;23.95;29.55;100078.59;20780224;27;98569;-79
2022/05/28 13:03:30;;;;;;;1.50;1.10;;;;;;;24.08;28.71;100068.50;20790699;27;97022;-79
2022/05/28 13:13:59;;;;;;;2.38;1.00;;;;;;;24.17;28.32;100048.28;20819481;27;97880;-81
2022/05/28 13:24:33;;;;;;;3.92;1.20;;;;;;;24.25;28.41;100048.34;20816109;27;97609;-81
2022/05/28 13:34:35;;;;;;;1.75;1.10;;;;;;;24.32;27.98;100048.59;20817938;27;97291;-81
2022/05/28 13:44:39;;;;;;;1.30;0.87;;;;;;;24.42;28.32;100048.56;20784384;27;97051;-78
2022/05/28 13:54:56;;;;;;;2.92;1.00;;;;;;;24.52;28.55;100040.56;20776015;27;97548;-79
2022/05/28 14:04:59;;;;;;;2.78;1.13;;;;;;;24.62;29.52;100023.63;20785452;27;97802;-79
2022/05/28 14:15:17;;;;;;;2.58;0.90;;;;;;;24.76;29.50;100035.53;20768439;27;99108;-77
2022/05/28 14:25:33;;;;;;;2.20;1.00;;;;;;;24.82;27.54;100018.22;20798082;27;99778;-79
2022/05/28 14:35:45;;;;;;;3.70;1.38;;;;;;;24.84;28.10;100018.91;20802913;27;99156;-79
2022/05/28 14:45:46;;;;;;;2.33;1.15;;;;;;;24.87;27.97;100023.06;20808043;27;96986;-79
2022/05/28 14:55:49;;;;;;;5.10;1.50;;;;;;;24.88;27.13;100009.66;20805057;27;97256;-78
2022/05/28 15:05:49;;;;;;;3.30;1.10;;;;;;;24.94;27.42;100024.13;20803408;27;97934;-78
2022/05/28 15:15:53;;;;;;;2.28;1.48;;;;;;;25.02;27.00;100002.97;20764455;27;100984;-79
2022/05/28 15:25:54;;;;;;;2.95;1.30;;;;;;;25.09;26.96;100022.56;20782547;27;97695;-78
2022/05/28 15:46:13;;;;;;;3.10;1.30;;;;;;;25.20;26.28;99995.00;20793649;27;99051;-79
2022/05/28 15:56:16;;;;;;;1.20;0.70;;;;;;;25.16;22.68;100006.03;20763650;27;97441;-81
2022/05/28 16:06:17;;;;;;;1.08;0.60;;;;;;;25.06;22.37;100004.34;20764181;27;97813;-80
2022/05/28 16:16:20;;;;;;;1.70;0.93;;;;;;;24.98;22.32;100006.09;20807302;27;97837;-80
2022/05/28 16:26:28;;;;;;;2.95;0.52;;;;;;;24.89;20.93;100011.31;20787465;27;97966;-81
2022/05/28 16:36:29;;;;;;;0.65;0.50;;;;;;;24.81;20.67;100023.66;20799593;27;97154;-82
2022/05/28 16:46:29;;;;;;;2.65;0.60;;;;;;;24.74;20.36;100041.97;20814033;27;98303;-82
2022/05/28 16:56:36;;;;;;;5.28;0.60;;;;;;;24.60;20.06;100049.41;20796472;27;97616;-81
2022/05/28 17:06:38;;;;;;;5.72;1.98;;;;;;;24.69;22.51;100047.69;20811386;27;98135;-79
2022/05/28 17:16:38;;;;;;;2.50;1.60;;;;;;;24.81;24.04;100060.72;20781750;27;97856;-80
2022/05/28 17:26:39;;;;;;;3.22;1.40;;;;;;;24.85;24.19;100054.16;20817705;27;98208;-81
2022/05/28 17:36:40;;;;;;;5.37;4.83;;;;;;;24.87;24.78;100045.06;20802129;27;97827;-81
2022/05/28 17:46:41;;;;;;;6.18;3.63;;;;;;;24.90;24.84;100057.16;20804415;27;97248;-81
2022/05/28 17:56:41;;;;;;;4.13;2.17;;;;;;;24.72;21.88;100065.13;20792867;27;97043;-80
2022/05/28 18:06:43;;;;;;;3.00;1.02;;;;;;;24.56;21.05;100074.53;20786921;27;97825;-81
2022/05/28 18:16:46;;;;;;;1.67;0.88;;;;;;;24.44;21.45;100073.88;20792945;27;97554;-83
2022/05/28 18:26:47;;;;;;;1.58;0.80;;;;;;;24.38;21.69;100086.88;20771585;27;101183;-80
2022/05/28 18:36:48;;;;;;;3.70;0.88;;;;;;;24.33;22.60;100095.25;20775248;27;98232;-77
2022/05/28 18:46:48;;;;;;;2.40;0.97;;;;;;;24.42;24.16;100106.78;20786951;27;98781;-79
2022/05/28 18:56:53;;;;;;;2.97;0.90;;;;;;;24.41;24.90;100128.91;20794891;27;99994;-84
2022/05/28 19:07:04;;;;;;;1.67;0.70;;;;;;;24.44;24.93;100149.81;20813871;27;98178;-80
2022/05/28 19:17:05;;;;;;;1.90;0.80;;;;;;;24.44;26.38;100158.56;20798261;27;96948;-80
2022/05/28 19:27:14;;;;;;;1.40;0.90;;;;;;;24.44;27.22;100155.94;20816606;27;97136;-80
2022/05/28 19:37:15;;;;;;;4.25;1.10;;;;;;;24.44;27.55;100158.56;20796285;27;97156;-79
2022/05/28 19:47:20;;;;;;;2.45;1.00;;;;;;;24.43;28.23;100164.03;20821047;27;97697;-80
2022/05/28 19:57:21;;;;;;;1.80;0.88;;;;;;;24.42;28.24;100159.69;20777961;27;98017;-80
2022/05/28 20:07:21;;;;;;;1.70;0.95;;;;;;;24.41;28.22;100144.78;20795581;27;98794;-79
2022/05/28 20:17:23;;;;;;;1.77;0.70;;;;;;;24.42;28.53;100143.81;20787670;27;97676;-78
2022/05/28 20:27:24;;;;;;;;;;;;;;;24.41;28.88;100168.63;20769500;27;97975;-80
2022/05/28 20:37:25;;;;;;;2.60;1.00;;;;;;;24.41;29.23;100161.53;20755747;27;98238;-79
2022/05/28 20:47:27;;;;;;;1.63;0.77;;;;;;;24.40;29.34;100172.22;20763149;27;101861;-79
2022/05/28 20:57:29;;;;;;;2.58;0.93;;;;;;;24.39;29.13;100171.41;20795151;27;98876;-79
2022/05/28 21:07:30;;;;;;;2.33;1.23;;;;;;;24.39;29.57;100179.34;20813259;27;97400;-79
2022/05/28 21:17:30;;;;;;;1.97;1.00;;;;;;;24.38;29.86;100179.50;20801849;27;100769;-80
2022/05/28 21:37:54;;;;;;;2.00;1.00;;;;;;;24.37;29.95;100199.00;20757235;27;97849;-79
2022/05/28 21:47:55;;;;;;;1.30;1.00;;;;;;;24.36;30.09;100200.81;20768968;27;99063;-79
2022/05/28 21:57:57;;;;;;;1.77;1.00;;;;;;;24.35;30.19;100209.75;20766851;27;97726;-78
2022/05/28 22:07:57;;;;;;;1.30;1.00;;;;;;;24.34;30.30;100207.22;20775695;27;97022;-77
2022/05/28 22:18:02;;;;;;;0.98;0.82;;;;;;;24.32;30.40;100207.38;20771025;27;100236;-79
2022/05/28 22:28:03;;;;;;;1.88;1.20;;;;;;;24.31;30.61;100211.00;20774693;27;96857;-80
2022/05/28 22:38:07;;;;;;;1.40;0.80;;;;;;;24.29;30.77;100199.72;20777398;27;100169;-78
2022/05/28 22:48:18;;;;;;;1.20;1.10;;;;;;;24.29;30.74;100197.06;20777321;27;99494;-78
2022/05/28 22:58:19;;;;;;;3.28;1.30;;;;;;;24.27;30.77;100189.28;20783256;27;98195;-78
2022/05/28 23:08:24;;;;;;;1.90;1.20;;;;;;;24.24;30.76;100180.78;20774731;27;97810;-78
2022/05/28 23:18:28;;;;;;;1.35;1.10;;;;;;;24.22;31.00;100178.28;20786134;27;98211;-79
2022/05/28 23:28:32;;;;;;;2.35;1.35;;;;;;;24.23;30.98;100173.81;20761339;27;99420;-78
2022/05/28 23:38:32;;;;;;;1.50;1.38;;;;;;;24.19;31.21;100169.81;20760808;27;101391;-79
2022/05/28 23:48:33;;;;;;;1.77;1.20;;;;;;;24.18;31.23;100168.13;20780349;27;100573;-79
2022/05/28 23:58:34;;;;;;;2.28;1.30;;;;;;;24.16;31.08;100159.50;20776969;27;97023;-77
